createdAt,value
2024-01-18T00:01:53.834Z,-12.89
2024-01-18T00:04:27.482Z,-12.92
2024-01-18T00:07:01.221Z,-12.94
2024-01-18T00:09:34.961Z,-12.96
2024-01-18T00:12:10.076Z,-12.96
2024-01-18T00:14:45.803Z,-12.96
2024-01-18T00:17:19.679Z,-12.96
2024-01-18T00:19:53.550Z,-12.97
2024-01-18T00:22:27.349Z,-12.94
2024-01-18T00:25:00.772Z,-12.93
2024-01-18T00:27:34.865Z,-12.94
2024-01-18T00:30:10.667Z,-12.94
2024-01-18T00:32:44.644Z,-12.97
2024-01-18T00:35:19.237Z,-12.98
2024-01-18T00:37:52.854Z,-12.99
2024-01-18T00:40:26.489Z,-13.02
2024-01-18T00:43:00.058Z,-13.04
2024-01-18T00:45:33.718Z,-13.08
2024-01-18T00:48:08.803Z,-13.12
2024-01-18T00:50:42.460Z,-13.13
2024-01-18T00:53:15.983Z,-13.16
2024-01-18T00:55:49.592Z,-13.19
2024-01-18T00:58:23.329Z,-13.21
2024-01-18T01:00:57.134Z,-13.23
2024-01-18T01:03:31.147Z,-13.26
2024-01-18T01:06:04.938Z,-13.29
2024-01-18T01:08:38.686Z,-13.32
2024-01-18T01:11:12.365Z,-13.33
2024-01-18T01:13:46.054Z,-13.36
2024-01-18T01:16:20.568Z,-13.39
2024-01-18T01:18:54.418Z,-13.41
2024-01-18T01:21:28.077Z,-13.43
2024-01-18T01:24:01.874Z,-13.44
2024-01-18T01:26:35.518Z,-13.47
2024-01-18T01:29:09.486Z,-13.48
2024-01-18T01:31:43.051Z,-13.52
2024-01-18T01:34:16.601Z,-13.55
2024-01-18T01:36:50.245Z,-13.58
2024-01-18T01:39:23.984Z,-13.59
2024-01-18T01:41:57.618Z,-13.63
2024-01-18T01:44:31.033Z,-13.63
2024-01-18T01:47:04.853Z,-13.66
2024-01-18T01:49:38.699Z,-13.68
2024-01-18T01:52:13.263Z,-13.71
2024-01-18T01:54:48.825Z,-13.72
2024-01-18T01:57:23.223Z,-13.71
2024-01-18T01:59:57.740Z,-13.70
2024-01-18T02:02:32.457Z,-13.70
2024-01-18T02:05:06.505Z,-13.70
2024-01-18T02:07:40.355Z,-13.69
2024-01-18T02:10:14.732Z,-13.69
2024-01-18T02:12:50.919Z,-13.70
2024-01-18T02:15:25.021Z,-13.71
2024-01-18T02:17:59.104Z,-13.71
2024-01-18T02:20:32.982Z,-13.74
2024-01-18T02:23:09.541Z,-13.75
2024-01-18T02:25:43.397Z,-13.76
2024-01-18T02:28:18.817Z,-13.76
2024-01-18T02:30:52.339Z,-13.76
2024-01-18T02:33:26.531Z,-13.75
2024-01-18T02:36:00.470Z,-13.73
2024-01-18T02:38:34.070Z,-13.73
2024-01-18T02:41:08.060Z,-13.71
2024-01-18T02:43:42.473Z,-13.70
2024-01-18T02:46:19.816Z,-13.68
2024-01-18T02:48:53.405Z,-13.68
2024-01-18T02:51:27.298Z,-13.64
2024-01-18T02:54:01.110Z,-13.58
2024-01-18T02:56:35.297Z,-13.53
2024-01-18T02:59:08.953Z,-13.53
2024-01-18T03:01:42.619Z,-13.53
2024-01-18T03:04:16.310Z,-13.51
2024-01-18T03:06:50.210Z,-13.50
2024-01-18T03:09:24.102Z,-13.51
2024-01-18T03:11:58.209Z,-13.52
2024-01-18T03:17:13.491Z,-13.36
2024-01-18T03:19:47.202Z,-13.43
2024-01-18T03:22:20.910Z,-13.38
2024-01-18T03:24:54.659Z,-13.35
2024-01-18T03:27:28.260Z,-13.31
2024-01-18T03:30:02.248Z,-13.44
2024-01-18T03:32:36.003Z,-13.30
2024-01-18T03:35:11.195Z,-13.29
2024-01-18T03:37:44.779Z,-13.23
2024-01-18T03:40:19.057Z,-13.20
2024-01-18T03:42:52.638Z,-13.17
2024-01-18T03:45:26.252Z,-13.15
2024-01-18T03:47:59.971Z,-13.11
2024-01-18T03:50:33.618Z,-13.06
2024-01-18T03:53:07.945Z,-13.02
2024-01-18T03:55:42.336Z,-12.97
2024-01-18T03:58:16.134Z,-12.91
2024-01-18T04:00:50.024Z,-12.90
2024-01-18T04:03:24.695Z,-12.87
2024-01-18T04:05:58.397Z,-12.86
2024-01-18T04:08:32.243Z,-12.84
2024-01-18T04:11:06.528Z,-12.81
2024-01-18T04:13:40.148Z,-12.81
2024-01-18T04:16:13.761Z,-12.77
2024-01-18T04:18:47.613Z,-12.76
2024-01-18T04:21:21.425Z,-12.72
2024-01-18T04:23:57.232Z,-12.69
2024-01-18T04:26:32.611Z,-12.71
2024-01-18T04:29:06.202Z,-12.71
2024-01-18T04:31:39.828Z,-12.71
2024-01-18T04:34:13.979Z,-12.68
2024-01-18T04:36:48.175Z,-12.67
2024-01-18T04:39:21.886Z,-12.65
2024-01-18T04:41:55.509Z,-12.61
2024-01-18T04:44:29.262Z,-12.57
2024-01-18T04:47:02.918Z,-12.53
2024-01-18T04:49:36.411Z,-12.49
2024-01-18T04:52:11.530Z,-12.45
2024-01-18T04:54:45.303Z,-12.43
2024-01-18T04:57:19.100Z,-12.39
2024-01-18T04:59:53.061Z,-12.37
2024-01-18T05:02:26.571Z,-12.34
2024-01-18T05:05:00.698Z,-12.27
2024-01-18T05:07:35.395Z,-12.25
2024-01-18T05:10:10.974Z,-12.23
2024-01-18T05:12:45.661Z,-12.21
2024-01-18T05:15:20.010Z,-12.21
2024-01-18T05:17:55.472Z,-12.22
2024-01-18T05:20:29.221Z,-12.21
2024-01-18T05:23:02.887Z,-12.21
2024-01-18T05:25:36.699Z,-12.23
2024-01-18T05:28:10.369Z,-12.26
2024-01-18T05:30:43.977Z,-12.27
2024-01-18T05:33:17.658Z,-12.28
2024-01-18T05:35:51.080Z,-12.29
2024-01-18T05:38:24.698Z,-12.27
2024-01-18T05:40:58.221Z,-12.26
2024-01-18T05:43:31.984Z,-12.27
2024-01-18T05:46:06.087Z,-12.28
2024-01-18T05:48:39.799Z,-12.24
2024-01-18T05:51:13.418Z,-12.19
2024-01-18T05:53:47.079Z,-12.13
2024-01-18T05:56:20.763Z,-12.08
2024-01-18T05:58:54.465Z,-12.02
2024-01-18T06:01:27.977Z,-11.98
2024-01-18T06:04:01.873Z,-11.94
2024-01-18T06:06:35.402Z,-11.88
2024-01-18T06:09:09.317Z,-11.85
2024-01-18T06:11:43.140Z,-11.81
2024-01-18T06:14:16.987Z,-11.76
2024-01-18T06:16:50.793Z,-11.72
2024-01-18T06:19:24.717Z,-11.70
2024-01-18T06:21:58.541Z,-11.69
2024-01-18T06:24:32.413Z,-11.65
2024-01-18T06:27:06.696Z,-11.59
2024-01-18T06:29:40.114Z,-11.55
2024-01-18T06:32:14.968Z,-11.54
2024-01-18T06:34:48.818Z,-11.53
2024-01-18T06:37:22.532Z,-11.50
2024-01-18T06:39:56.527Z,-11.48
2024-01-18T06:42:30.373Z,-11.46
2024-01-18T06:45:04.460Z,-11.39
2024-01-18T06:47:38.375Z,-11.36
2024-01-18T06:50:14.556Z,-11.28
2024-01-18T06:52:49.579Z,-11.21
2024-01-18T06:55:23.315Z,-11.11
2024-01-18T06:57:59.029Z,-11.04
2024-01-18T07:00:34.203Z,-11.01
2024-01-18T07:03:09.828Z,-10.95
2024-01-18T07:05:44.083Z,-10.90
2024-01-18T07:08:17.713Z,-10.86
2024-01-18T07:10:51.550Z,-10.82
2024-01-18T07:13:25.130Z,-10.77
2024-01-18T07:15:58.942Z,-10.69
2024-01-18T07:18:32.765Z,-10.68
2024-01-18T07:21:06.858Z,-10.63
2024-01-18T07:23:40.974Z,-10.60
2024-01-18T07:26:14.649Z,-10.55
2024-01-18T07:28:48.751Z,-10.47
2024-01-18T07:31:22.187Z,-10.42
2024-01-18T07:33:56.190Z,-10.33
2024-01-18T07:36:30.277Z,-10.31
2024-01-18T07:39:04.635Z,-10.26
2024-01-18T07:41:38.661Z,-10.22
2024-01-18T07:44:13.054Z,-10.20
2024-01-18T07:46:46.560Z,-10.20
2024-01-18T07:49:21.852Z,-10.11
2024-01-18T07:51:56.071Z,-10.03
2024-01-18T07:54:30.086Z,-9.98
2024-01-18T07:57:03.683Z,-9.93
2024-01-18T07:59:37.612Z,-9.90
2024-01-18T08:02:11.289Z,-9.84
2024-01-18T08:04:45.162Z,-9.78
2024-01-18T08:07:18.903Z,-9.73
2024-01-18T08:09:52.712Z,-9.67
2024-01-18T08:12:26.352Z,-9.67
2024-01-18T08:15:00.338Z,-9.63
2024-01-18T08:17:35.096Z,-9.60
2024-01-18T08:20:12.862Z,-9.55
2024-01-18T08:22:46.925Z,-9.54
2024-01-18T08:25:20.891Z,-9.51
2024-01-18T08:27:56.524Z,-9.47
2024-01-18T08:30:30.504Z,-9.45
2024-01-18T08:33:04.639Z,-9.43
2024-01-18T08:35:39.099Z,-9.32
2024-01-18T08:38:12.663Z,-9.23
2024-01-18T08:40:46.348Z,-9.24
2024-01-18T08:43:21.640Z,-9.20
2024-01-18T08:45:55.332Z,-9.09
2024-01-18T08:48:29.047Z,-9.06
2024-01-18T08:51:03.553Z,-9.08
2024-01-18T08:53:37.277Z,-9.07
2024-01-18T08:56:11.256Z,-9.09
2024-01-18T08:58:45.220Z,-9.02
2024-01-18T09:01:18.948Z,-9.03
2024-01-18T09:03:52.811Z,-9.09
2024-01-18T09:06:27.321Z,-8.99
2024-01-18T09:09:00.991Z,-8.94
2024-01-18T09:11:35.083Z,-8.90
2024-01-18T09:14:08.954Z,-8.89
2024-01-18T09:16:42.889Z,-8.93
2024-01-18T09:19:16.546Z,-8.93
2024-01-18T09:21:50.394Z,-9.01
2024-01-18T09:24:24.056Z,-9.04
2024-01-18T09:26:57.963Z,-9.02
2024-01-18T09:29:31.820Z,-9.08
2024-01-18T09:32:07.422Z,-9.20
2024-01-18T09:34:41.253Z,-9.28
2024-01-18T09:37:15.258Z,-9.31
2024-01-18T09:39:49.222Z,-9.38
2024-01-18T09:42:24.791Z,-9.40
2024-01-18T09:45:01.432Z,-9.40
2024-01-18T09:47:35.483Z,-9.39
2024-01-18T09:50:11.451Z,-9.21
2024-01-18T09:52:46.877Z,-9.22
2024-01-18T09:55:20.968Z,-9.15
2024-01-18T09:57:57.328Z,-9.20
2024-01-18T10:00:33.371Z,-9.24
2024-01-18T10:03:07.986Z,-9.22
2024-01-18T10:05:41.790Z,-9.25
2024-01-18T10:08:16.169Z,-9.28
2024-01-18T10:10:50.186Z,-9.28
2024-01-18T10:13:23.549Z,-9.34
2024-01-18T10:15:57.215Z,-9.39
2024-01-18T10:18:30.949Z,-9.40
2024-01-18T10:21:04.960Z,-9.40
2024-01-18T10:23:38.620Z,-9.41
2024-01-18T10:26:14.423Z,-9.51
2024-01-18T10:28:48.575Z,-9.66
2024-01-18T10:31:22.515Z,-9.69
2024-01-18T10:33:57.435Z,-9.60
2024-01-18T10:36:31.388Z,-9.61
2024-01-18T10:39:18.039Z,-9.57
2024-01-18T10:41:51.993Z,-9.58
2024-01-18T10:44:26.857Z,-9.72
2024-01-18T10:47:00.279Z,-9.71
2024-01-18T10:49:35.007Z,-9.65
2024-01-18T10:52:10.364Z,-9.66
2024-01-18T10:54:50.083Z,-9.64
2024-01-18T10:57:19.480Z,-9.70
2024-01-18T10:59:54.397Z,-9.66
2024-01-18T11:02:28.298Z,-9.66
2024-01-18T11:05:02.355Z,-9.70
2024-01-18T11:07:36.901Z,-9.59
2024-01-18T11:10:15.380Z,-9.59
2024-01-18T11:12:50.957Z,-9.60
2024-01-18T11:15:25.235Z,-9.58
2024-01-18T11:18:00.394Z,-9.59
2024-01-18T11:20:34.416Z,-9.53
2024-01-18T11:23:08.541Z,-9.52
2024-01-18T11:25:42.303Z,-9.56
2024-01-18T11:28:25.529Z,-9.53
2024-01-18T11:31:01.220Z,-9.47
2024-01-18T11:33:35.578Z,-9.40
2024-01-18T11:36:15.282Z,-9.38
2024-01-18T11:38:49.637Z,-9.45
2024-01-18T11:41:26.651Z,-9.42
2024-01-18T11:44:03.489Z,-9.42
2024-01-18T11:46:39.973Z,-9.39
2024-01-18T11:49:13.917Z,-9.41
2024-01-18T11:51:49.600Z,-9.43
2024-01-18T11:54:23.492Z,-9.42
2024-01-18T11:57:00.075Z,-9.47
2024-01-18T11:59:36.178Z,-9.52
2024-01-18T12:02:10.338Z,-9.51
2024-01-18T12:04:44.378Z,-9.59
2024-01-18T12:07:20.362Z,-9.65
2024-01-18T12:09:56.499Z,-9.72
2024-01-18T12:12:33.570Z,-9.82
2024-01-18T12:15:09.274Z,-9.89
2024-01-18T12:17:42.992Z,-9.98
2024-01-18T12:20:18.961Z,-10.05
2024-01-18T12:22:52.812Z,-10.10
2024-01-18T12:25:28.427Z,-10.16
2024-01-18T12:28:02.253Z,-10.17
2024-01-18T12:30:36.787Z,-10.14
2024-01-18T12:33:11.429Z,-10.14
2024-01-18T12:35:46.875Z,-10.10
2024-01-18T12:38:21.741Z,-10.07
2024-01-18T12:40:55.278Z,-10.07
2024-01-18T12:43:28.685Z,-10.07
2024-01-18T12:46:02.483Z,-10.06
2024-01-18T12:48:36.358Z,-10.07
2024-01-18T12:51:10.218Z,-10.06
2024-01-18T12:53:44.228Z,-10.03
2024-01-18T12:56:18.529Z,-10.04
2024-01-18T12:58:53.982Z,-10.11
2024-01-18T13:01:32.283Z,-10.17
2024-01-18T13:04:16.369Z,-10.16
2024-01-18T13:06:57.156Z,-10.25
2024-01-18T13:09:29.181Z,-10.25
2024-01-18T13:12:05.525Z,-10.27
2024-01-18T13:14:39.729Z,-10.30
2024-01-18T13:17:14.685Z,-10.32
2024-01-18T13:19:49.154Z,-10.31
2024-01-18T13:22:22.680Z,-10.31
2024-01-18T13:24:56.503Z,-10.23
2024-01-18T13:27:30.368Z,-10.24
2024-01-18T13:30:04.877Z,-10.17
2024-01-18T13:32:39.153Z,-10.13
2024-01-18T13:35:13.110Z,-10.18
2024-01-18T13:37:46.564Z,-10.20
2024-01-18T13:40:21.182Z,-10.19
2024-01-18T13:42:56.222Z,-10.14
2024-01-18T13:45:31.553Z,-10.17
2024-01-18T13:48:06.557Z,-10.21
2024-01-18T13:50:40.896Z,-10.28
2024-01-18T13:53:17.445Z,-10.32
2024-01-18T13:55:51.746Z,-10.36
2024-01-18T13:58:25.518Z,-10.40
2024-01-18T14:01:01.937Z,-10.44
2024-01-18T14:03:37.097Z,-10.44
2024-01-18T14:06:11.050Z,-10.42
2024-01-18T14:08:46.428Z,-10.44
2024-01-18T14:11:20.831Z,-10.39
2024-01-18T14:13:54.835Z,-10.44
2024-01-18T14:16:28.216Z,-10.47
2024-01-18T14:19:02.037Z,-10.52
2024-01-18T14:21:36.359Z,-10.49
2024-01-18T14:24:10.241Z,-10.46
2024-01-18T14:26:43.695Z,-10.46
2024-01-18T14:29:17.742Z,-10.42
2024-01-18T14:31:51.475Z,-10.39
2024-01-18T14:34:25.262Z,-10.33
2024-01-18T14:36:59.151Z,-10.30
2024-01-18T14:39:34.758Z,-10.30
2024-01-18T14:42:09.804Z,-10.23
2024-01-18T14:44:45.378Z,-10.13
2024-01-18T14:47:26.905Z,-10.06
2024-01-18T14:50:01.501Z,-10.03
2024-01-18T14:52:36.127Z,-10.10
2024-01-18T14:55:12.055Z,-10.13
2024-01-18T14:57:45.551Z,-10.07
2024-01-18T15:00:20.373Z,-10.06
2024-01-18T15:02:54.827Z,-10.02
2024-01-18T15:05:28.961Z,-9.97
2024-01-18T15:08:04.378Z,-10.00
2024-01-18T15:10:38.544Z,-9.99
2024-01-18T15:13:12.149Z,-10.04
2024-01-18T15:15:47.500Z,-10.05
2024-01-18T15:18:21.352Z,-10.02
2024-01-18T15:20:55.245Z,-10.05
2024-01-18T15:23:29.021Z,-10.06
2024-01-18T15:26:04.505Z,-10.02
2024-01-18T15:28:39.500Z,-10.00
2024-01-18T15:31:16.558Z,-9.97
2024-01-18T15:33:50.774Z,-9.97
2024-01-18T15:36:24.475Z,-9.92
2024-01-18T15:39:00.912Z,-9.84
2024-01-18T15:41:36.652Z,-9.77
2024-01-18T15:44:10.422Z,-9.67
2024-01-18T15:46:47.315Z,-9.62
2024-01-18T15:49:23.188Z,-9.68
2024-01-18T15:51:56.624Z,-9.63
2024-01-18T15:54:32.568Z,-9.56
2024-01-18T15:57:09.780Z,-9.58
2024-01-18T15:59:43.564Z,-9.53
2024-01-18T16:02:17.509Z,-9.52
2024-01-18T16:04:53.755Z,-9.50
2024-01-18T16:07:27.802Z,-9.40
2024-01-18T16:10:04.468Z,-9.33
2024-01-18T16:12:40.738Z,-9.33
2024-01-18T16:15:15.273Z,-9.27
2024-01-18T16:17:50.378Z,-9.12
2024-01-18T16:20:25.488Z,-9.10
2024-01-18T16:23:02.727Z,-9.08
2024-01-18T16:25:36.348Z,-9.00
2024-01-18T16:28:09.974Z,-8.95
2024-01-18T16:30:45.144Z,-8.90
2024-01-18T16:33:19.627Z,-8.87
2024-01-18T16:35:53.677Z,-8.85
2024-01-18T16:38:27.752Z,-8.81
2024-01-18T16:41:02.808Z,-8.80
2024-01-18T16:43:38.231Z,-8.68
2024-01-18T16:46:12.787Z,-8.61
2024-01-18T16:48:49.163Z,-8.54
2024-01-18T16:51:23.103Z,-8.50
2024-01-18T16:53:56.859Z,-8.47
2024-01-18T16:56:33.531Z,-8.54
2024-01-18T16:59:11.675Z,-8.54
2024-01-18T17:01:45.179Z,-8.51
2024-01-18T17:04:18.770Z,-8.47
2024-01-18T17:06:55.840Z,-8.52
2024-01-18T17:09:33.020Z,-8.47
2024-01-18T17:12:10.482Z,-8.46
2024-01-18T17:14:45.866Z,-8.38
2024-01-18T17:17:21.557Z,-8.38
2024-01-18T17:19:55.381Z,-8.37
2024-01-18T17:22:29.494Z,-8.35
2024-01-18T17:25:06.172Z,-8.34
2024-01-18T17:27:46.218Z,-8.34
2024-01-18T17:30:21.459Z,-8.37
2024-01-18T17:32:58.192Z,-8.37
2024-01-18T17:35:32.189Z,-8.34
2024-01-18T17:38:08.056Z,-8.30
2024-01-18T17:40:44.964Z,-8.35
2024-01-18T17:43:20.480Z,-8.33
2024-01-18T17:48:37.683Z,-8.20
2024-01-18T17:51:13.414Z,-8.27
2024-01-18T17:53:47.570Z,-8.20
2024-01-18T17:56:21.626Z,-8.15
2024-01-18T17:58:58.077Z,-8.15
2024-01-18T18:01:32.869Z,-8.10
2024-01-18T18:04:08.345Z,-8.05
2024-01-18T18:06:49.321Z,-8.12
2024-01-18T18:09:22.872Z,-8.12
2024-01-18T18:11:56.578Z,-8.07
2024-01-18T18:14:32.323Z,-8.08
2024-01-18T18:17:07.161Z,-8.05
2024-01-18T18:19:41.819Z,-8.02
2024-01-18T18:22:17.315Z,-8.01
2024-01-18T18:24:52.187Z,-7.95
2024-01-18T18:27:26.424Z,-7.93
2024-01-18T18:30:00.802Z,-7.88
2024-01-18T18:32:35.753Z,-7.92
2024-01-18T18:35:30.468Z,-7.86
2024-01-18T18:38:21.242Z,-7.82
2024-01-18T18:40:50.173Z,-7.84
2024-01-18T18:43:24.387Z,-7.84
2024-01-18T18:46:02.608Z,-7.78
2024-01-18T18:48:37.312Z,-7.75
2024-01-18T18:51:14.415Z,-7.72
2024-01-18T18:53:48.231Z,-7.67
2024-01-18T18:56:22.730Z,-7.70
2024-01-18T18:58:56.274Z,-7.60
2024-01-18T19:01:30.045Z,-7.67
2024-01-18T19:04:04.288Z,-7.66
2024-01-18T19:06:38.048Z,-7.61
2024-01-18T19:09:11.721Z,-7.61
2024-01-18T19:11:45.382Z,-7.58
2024-01-18T19:14:19.479Z,-7.53
2024-01-18T19:16:53.590Z,-7.48
2024-01-18T19:19:27.194Z,-7.46
2024-01-18T19:22:00.788Z,-7.47
2024-01-18T19:24:34.151Z,-7.42
2024-01-18T19:27:08.973Z,-7.37
2024-01-18T19:29:46.582Z,-7.40
2024-01-18T19:32:20.665Z,-7.38
2024-01-18T19:34:54.611Z,-7.34
2024-01-18T19:37:28.669Z,-7.31
2024-01-18T19:40:05.464Z,-7.27
2024-01-18T19:42:41.045Z,-7.22
2024-01-18T19:45:15.974Z,-7.24
2024-01-18T19:47:51.627Z,-7.20
2024-01-18T19:50:30.762Z,-7.21
2024-01-18T19:53:09.116Z,-7.21
2024-01-18T19:55:53.921Z,-7.15
2024-01-18T19:58:27.823Z,-7.13
2024-01-18T20:01:05.536Z,-7.12
2024-01-18T20:03:39.925Z,-7.09
2024-01-18T20:06:13.773Z,-7.05
2024-01-18T20:08:47.549Z,-7.00
2024-01-18T20:11:21.237Z,-6.99
2024-01-18T20:13:54.821Z,-6.97
2024-01-18T20:16:28.401Z,-6.94
2024-01-18T20:19:08.148Z,-6.97
2024-01-18T20:21:37.822Z,-6.95
2024-01-18T20:24:11.622Z,-6.91
2024-01-18T20:26:45.670Z,-6.88
2024-01-18T20:29:19.874Z,-6.87
2024-01-18T20:31:53.674Z,-6.82
2024-01-18T20:34:27.322Z,-6.81
2024-01-18T20:37:01.783Z,-6.73
2024-01-18T20:39:36.633Z,-6.72
2024-01-18T20:42:13.105Z,-6.71
2024-01-18T20:44:47.043Z,-6.69
2024-01-18T20:47:21.527Z,-6.71
2024-01-18T20:49:55.485Z,-6.72
2024-01-18T20:52:28.845Z,-6.64
2024-01-18T20:55:02.447Z,-6.58
2024-01-18T20:57:35.792Z,-6.60
2024-01-18T21:00:18.666Z,-6.61
2024-01-18T21:02:47.909Z,-6.58
2024-01-18T21:05:21.694Z,-6.60
2024-01-18T21:07:56.540Z,-6.62
2024-01-18T21:10:33.147Z,-6.61
2024-01-18T21:13:06.813Z,-6.59
2024-01-18T21:15:40.825Z,-6.56
2024-01-18T21:18:15.600Z,-6.54
2024-01-18T21:20:49.560Z,-6.56
2024-01-18T21:23:25.246Z,-6.53
2024-01-18T21:26:00.983Z,-6.54
2024-01-18T21:28:34.973Z,-6.52
2024-01-18T21:31:09.239Z,-6.49
2024-01-18T21:33:43.069Z,-6.48
2024-01-18T21:36:17.146Z,-6.49
2024-01-18T21:38:50.958Z,-6.50
2024-01-18T21:41:26.370Z,-6.46
2024-01-18T21:44:00.265Z,-6.42
2024-01-18T21:46:33.691Z,-6.37
2024-01-18T21:49:08.504Z,-6.40
2024-01-18T21:51:42.843Z,-6.39
2024-01-18T21:54:16.832Z,-6.39
2024-01-18T21:56:50.700Z,-6.37
2024-01-18T21:59:32.628Z,-6.35
2024-01-18T22:01:59.911Z,-6.31
2024-01-18T22:04:33.979Z,-6.33
2024-01-18T22:07:09.376Z,-6.29
2024-01-18T22:09:43.604Z,-6.28
2024-01-18T22:12:17.291Z,-6.27
2024-01-18T22:14:53.497Z,-6.23
2024-01-18T22:17:27.197Z,-6.19
2024-01-18T22:20:05.169Z,-6.21
2024-01-18T22:22:36.871Z,-6.20
2024-01-18T22:25:12.021Z,-6.19
2024-01-18T22:27:45.560Z,-6.18
2024-01-18T22:30:19.363Z,-6.16
2024-01-18T22:32:52.828Z,-6.15
2024-01-18T22:35:26.915Z,-6.13
2024-01-18T22:38:00.611Z,-6.13
2024-01-18T22:40:34.014Z,-6.14
2024-01-18T22:43:08.127Z,-6.14
2024-01-18T22:45:41.826Z,-6.07
2024-01-18T22:48:17.499Z,-6.02
2024-01-18T22:50:51.628Z,-6.02
2024-01-18T22:53:25.390Z,-5.93
2024-01-18T22:55:58.845Z,-5.85
2024-01-18T22:58:34.122Z,-5.81
2024-01-18T23:01:10.645Z,-5.82
2024-01-18T23:03:44.897Z,-5.77
2024-01-18T23:06:18.762Z,-5.75
2024-01-18T23:08:52.476Z,-5.73
2024-01-18T23:11:26.116Z,-5.72
2024-01-18T23:13:59.845Z,-5.69
2024-01-18T23:16:33.437Z,-5.67
2024-01-18T23:19:11.220Z,-5.64
2024-01-18T23:21:44.355Z,-5.60
2024-01-18T23:24:17.876Z,-5.61
2024-01-18T23:26:51.432Z,-5.59
2024-01-18T23:29:25.110Z,-5.52
2024-01-18T23:31:58.733Z,-5.48
2024-01-18T23:34:32.329Z,-5.47
2024-01-18T23:37:06.913Z,-5.48
2024-01-18T23:39:40.347Z,-5.52
2024-01-18T23:42:19.790Z,-5.54
2024-01-18T23:44:53.644Z,-5.55
2024-01-18T23:47:27.620Z,-5.47
2024-01-18T23:50:02.133Z,-5.41
2024-01-18T23:52:35.817Z,-5.38
2024-01-18T23:55:12.424Z,-5.36
2024-01-18T23:57:45.849Z,-5.33
